Time;durP1;ratioP1;P1;durP2;ratioP2;P2;SDS_P1;SDS_P2;PMS_P1;PMS_P2;Temp;Humidity;BMP_temperature;BMP_pressure;BME280_temperature;BME280_humidity;BME280_pressure;Samples;Min_cycle;Max_cycle;Signal;HPM_P1;HPM_P2
2022/11/23 00:02:04;;;;;;;7.17;1.77;;;;;;;19.76;59.42;98950.38;5090547;28;21000;-63
2022/11/23 00:04:29;;;;;;;5.57;2.10;;;;;;;19.82;59.19;98948.69;5087055;28;20198;-64
2022/11/23 00:06:55;;;;;;;4.67;2.23;;;;;;;19.80;59.44;98947.47;5071883;28;20162;-64
2022/11/23 00:09:20;;;;;;;6.97;2.50;;;;;;;19.73;59.59;98938.97;5090516;28;20186;-64
2022/11/23 00:11:46;;;;;;;3.27;1.40;;;;;;;19.79;59.50;98938.09;5089883;28;20182;-64
2022/11/23 00:14:11;;;;;;;8.30;1.93;;;;;;;19.81;59.59;98940.53;5090762;28;20159;-64
2022/11/23 00:16:37;;;;;;;5.30;1.70;;;;;;;19.80;59.77;98936.03;5055504;28;20173;-64
2022/11/23 00:19:02;;;;;;;4.43;1.80;;;;;;;19.82;59.63;98934.38;5089365;28;20190;-64
2022/11/23 00:21:29;;;;;;;4.80;1.83;;;;;;;19.79;59.62;98934.41;5089544;28;20243;-63
2022/11/23 00:23:55;;;;;;;9.40;1.93;;;;;;;19.76;59.98;98950.38;5055888;28;20194;-64
2022/11/23 00:26:20;;;;;;;5.70;1.53;;;;;;;19.76;59.96;98950.38;5055101;28;21049;-64
2022/11/23 00:28:46;;;;;;;7.43;2.00;;;;;;;19.76;60.16;98956.09;5088503;28;20190;-64
2022/11/23 00:31:13;;;;;;;5.33;1.70;;;;;;;19.77;60.30;98956.94;5093691;28;20520;-63
2022/11/23 00:33:38;;;;;;;3.50;1.70;;;;;;;19.81;60.10;98958.53;5092418;28;20665;-64
2022/11/23 00:36:06;;;;;;;5.10;1.53;;;;;;;19.78;59.98;98959.38;5091851;28;20463;-63
2022/11/23 00:38:31;;;;;;;4.67;1.20;;;;;;;19.82;60.27;98953.63;5093672;28;20525;-62
2022/11/23 00:41:00;;;;;;;5.27;1.73;;;;;;;19.82;60.12;98951.56;5093039;28;20448;-63
2022/11/23 00:43:26;;;;;;;5.63;1.90;;;;;;;19.83;60.11;98961.78;5093200;28;20174;-63
2022/11/23 00:46:10;;;;;;;7.20;2.00;;;;;;;19.78;60.04;98959.38;5093156;28;20419;-63
2022/11/23 00:48:35;;;;;;;6.30;1.87;;;;;;;19.74;59.68;98958.59;5089924;28;20478;-63
2022/11/23 00:51:05;;;;;;;5.27;1.93;;;;;;;19.68;59.16;98959.47;5094295;28;20423;-63
2022/11/23 00:53:30;;;;;;;4.80;2.10;;;;;;;19.64;59.01;98953.75;5094975;28;20154;-63
2022/11/23 00:55:56;;;;;;;5.40;1.87;;;;;;;19.68;59.07;98959.47;5095252;28;20446;-63
2022/11/23 00:58:21;;;;;;;5.10;1.50;;;;;;;19.65;59.34;98966.84;5095208;28;20159;-63
2022/11/23 01:00:47;;;;;;;10.03;1.63;;;;;;;19.59;59.36;98968.53;5076757;28;20181;-63
2022/11/23 01:03:13;;;;;;;7.23;1.77;;;;;;;19.52;59.47;98980.00;5076732;28;20184;-63
2022/11/23 01:05:38;;;;;;;9.53;2.17;;;;;;;19.47;59.75;98980.44;5077033;28;20688;-63
2022/11/23 01:08:04;;;;;;;4.97;1.67;;;;;;;19.46;59.87;98975.97;5077143;28;20412;-63
2022/11/23 01:10:30;;;;;;;4.93;2.07;;;;;;;19.41;59.93;98969.91;5076939;28;20167;-63
2022/11/23 01:12:55;;;;;;;5.63;1.70;;;;;;;19.43;59.96;98967.41;5072463;28;20175;-63
2022/11/23 01:15:21;;;;;;;6.53;2.10;;;;;;;19.40;60.06;98971.09;5074737;28;20170;-63
2022/11/23 01:17:46;;;;;;;4.80;1.67;;;;;;;19.37;60.12;98977.69;5057087;28;20513;-63
2022/11/23 01:20:12;;;;;;;6.00;1.60;;;;;;;19.39;59.98;98981.75;5074484;28;20201;-63
2022/11/23 01:22:37;;;;;;;8.97;1.63;;;;;;;19.38;60.18;98973.56;5074493;28;20274;-63
2022/11/23 01:25:03;;;;;;;3.83;1.63;;;;;;;19.42;59.92;98974.38;5076296;28;20163;-63
2022/11/23 01:27:29;;;;;;;6.50;1.57;;;;;;;19.36;60.25;98974.00;5094751;28;20198;-63
2022/11/23 01:29:54;;;;;;;4.70;1.53;;;;;;;19.38;60.00;98980.13;5094660;28;20806;-63
2022/11/23 01:32:20;;;;;;;6.40;1.83;;;;;;;19.37;60.09;98978.47;5093763;28;20167;-63
2022/11/23 01:34:45;;;;;;;3.63;1.10;;;;;;;19.34;60.16;98985.06;5043014;28;20645;-63
2022/11/23 01:37:10;;;;;;;3.53;1.40;;;;;;;19.37;60.13;98966.22;5094499;28;20185;-63
2022/11/23 01:39:36;;;;;;;6.13;1.87;;;;;;;19.35;60.08;98969.50;5094355;28;20162;-63
2022/11/23 01:42:05;;;;;;;5.73;1.60;;;;;;;19.36;60.22;98971.13;5093342;28;20194;-63
2022/11/23 01:44:32;;;;;;;6.60;1.77;;;;;;;19.35;60.05;98978.09;5094791;28;20186;-63
2022/11/23 01:46:59;;;;;;;2.50;1.33;;;;;;;19.37;60.33;98975.63;5094012;28;20516;-63
2022/11/23 01:49:24;;;;;;;4.43;1.67;;;;;;;19.36;60.13;98976.06;5073236;28;20448;-63
2022/11/23 01:51:51;;;;;;;6.20;1.50;;;;;;;19.36;60.17;98976.06;5072930;28;20828;-63
2022/11/23 01:54:44;;;;;;;4.17;1.43;;;;;;;19.37;60.20;98974.81;5076283;28;20814;-63
2022/11/23 01:57:15;;;;;;;6.53;1.67;;;;;;;19.36;60.25;98970.34;5086782;28;20524;-63
2022/11/23 01:59:40;;;;;;;4.97;1.80;;;;;;;19.33;60.21;98974.84;5094429;28;20404;-63
2022/11/23 02:02:05;;;;;;;3.10;1.50;;;;;;;19.35;60.12;98972.38;5084391;28;20502;-63
2022/11/23 02:04:36;;;;;;;3.93;1.57;;;;;;;19.38;59.91;98973.56;5077332;28;20860;-63
2022/11/23 02:07:02;;;;;;;3.10;1.47;;;;;;;19.37;60.12;98974.81;5040134;28;20869;-63
2022/11/23 02:09:29;;;;;;;4.33;1.23;;;;;;;19.34;60.08;98976.47;5074683;28;20401;-63
2022/11/23 02:11:55;;;;;;;4.00;1.27;;;;;;;19.34;60.18;98984.22;5073297;28;20174;-63
2022/11/23 02:14:20;;;;;;;2.80;1.30;;;;;;;19.32;60.18;98986.69;5073340;28;20461;-63
2022/11/23 02:16:46;;;;;;;4.50;1.63;;;;;;;19.33;60.21;98985.47;5073010;28;20163;-63
2022/11/23 02:19:49;;;;;;;3.93;1.27;;;;;;;19.33;60.14;98989.16;5073194;28;20179;-63
2022/11/23 02:22:49;;;;;;;4.37;1.77;;;;;;;19.31;60.14;98994.47;5053882;28;20219;-63
2022/11/23 02:25:44;;;;;;;3.00;1.73;;;;;;;19.33;60.34;98999.78;5049588;28;20429;-63
2022/11/23 02:28:15;;;;;;;3.90;1.30;;;;;;;19.29;60.35;99004.69;5045771;28;20420;-63
2022/11/23 02:30:40;;;;;;;4.20;1.40;;;;;;;19.30;60.35;99006.31;5075507;28;20839;-63
2022/11/23 02:33:06;;;;;;;4.70;1.50;;;;;;;19.27;60.35;98996.53;5075457;28;20416;-63
2022/11/23 02:35:32;;;;;;;4.50;1.20;;;;;;;19.29;60.50;98993.25;5075361;28;20246;-63
2022/11/23 02:37:58;;;;;;;3.47;1.63;;;;;;;19.28;60.60;98985.91;5093066;28;20656;-63
2022/11/23 02:40:33;;;;;;;6.40;1.77;;;;;;;19.25;60.35;98973.25;5074869;28;20416;-63
2022/11/23 02:42:59;;;;;;;5.30;1.40;;;;;;;19.26;60.42;98974.06;5074062;28;20444;-63
2022/11/23 02:45:41;;;;;;;3.40;1.40;;;;;;;19.24;60.32;98971.63;5074652;28;20774;-63
2022/11/23 02:48:07;;;;;;;4.00;1.67;;;;;;;19.23;60.41;98967.16;5057607;28;20166;-63
2022/11/23 02:50:32;;;;;;;3.70;1.40;;;;;;;19.21;60.37;98966.69;5092437;28;20545;-63
2022/11/23 02:52:58;;;;;;;3.90;1.67;;;;;;;19.23;60.46;98955.69;5092591;28;20533;-63
2022/11/23 02:55:23;;;;;;;2.70;0.90;;;;;;;19.23;60.41;98954.88;5074992;28;20222;-62
2022/11/23 02:57:48;;;;;;;3.10;1.20;;;;;;;19.23;60.43;98955.69;5093223;28;20224;-63
2022/11/23 03:00:15;;;;;;;4.90;1.83;;;;;;;19.19;60.48;98956.91;5092991;28;20166;-63
2022/11/23 03:02:40;;;;;;;4.00;1.17;;;;;;;19.24;60.49;98959.34;5092222;28;20700;-63
2022/11/23 03:05:06;;;;;;;3.07;1.50;;;;;;;19.21;60.48;98951.59;5072926;28;20452;-63
2022/11/23 03:07:31;;;;;;;3.97;1.33;;;;;;;19.17;60.70;98948.72;5072811;28;20610;-63
2022/11/23 03:09:57;;;;;;;2.80;1.07;;;;;;;19.17;60.61;98951.59;5072895;28;20167;-63
2022/11/23 03:12:22;;;;;;;3.77;1.33;;;;;;;19.21;60.58;98946.66;5072613;28;20151;-63
2022/11/23 03:14:47;;;;;;;2.73;1.20;;;;;;;19.19;60.54;98949.16;5072631;28;20213;-63
2022/11/23 03:17:13;;;;;;;5.00;1.90;;;;;;;19.20;60.54;98947.91;5072972;28;20159;-63
2022/11/23 03:19:38;;;;;;;3.77;1.20;;;;;;;19.18;60.40;98944.66;5072565;28;20250;-63
2022/11/23 03:22:04;;;;;;;2.80;1.20;;;;;;;19.16;60.63;98944.25;5072674;28;20203;-63
2022/11/23 03:24:30;;;;;;;3.40;1.40;;;;;;;19.16;60.51;98941.38;5072642;28;20225;-63
2022/11/23 03:26:55;;;;;;;4.87;1.67;;;;;;;19.17;60.61;98939.34;5075172;28;20171;-63
2022/11/23 03:29:25;;;;;;;3.60;1.43;;;;;;;19.16;60.53;98952.03;5072458;28;20610;-63
2022/11/23 03:31:53;;;;;;;2.77;1.20;;;;;;;19.13;60.56;98947.97;5070984;28;20167;-63
2022/11/23 03:34:18;;;;;;;1.87;0.90;;;;;;;19.16;60.57;98938.53;5088294;28;20419;-63
2022/11/23 03:36:44;;;;;;;3.47;1.40;;;;;;;19.14;60.67;98943.84;5074669;28;20396;-63
2022/11/23 03:39:09;;;;;;;4.10;1.43;;;;;;;19.15;60.64;98947.53;5092653;28;20238;-63
2022/11/23 03:41:35;;;;;;;4.23;1.53;;;;;;;19.13;60.75;98938.56;5092501;28;20277;-63
2022/11/23 03:44:00;;;;;;;3.60;1.40;;;;;;;19.13;60.78;98939.38;5089080;28;20510;-63
2022/11/23 03:46:26;;;;;;;5.23;1.40;;;;;;;19.13;60.64;98939.38;5074213;28;20597;-63
2022/11/23 03:48:51;;;;;;;4.40;1.90;;;;;;;19.11;60.73;98947.53;5092084;28;20216;-63
2022/11/23 03:51:17;;;;;;;4.50;1.47;;;;;;;19.13;60.56;98950.00;5089154;28;20645;-63
2022/11/23 03:53:42;;;;;;;3.80;1.43;;;;;;;19.14;60.49;98941.00;5092203;28;20230;-63
2022/11/23 03:56:08;;;;;;;2.77;1.30;;;;;;;19.12;60.63;98948.38;5092543;28;20263;-63
2022/11/23 03:58:33;;;;;;;4.93;1.33;;;;;;;19.09;60.53;98944.31;5092473;28;20167;-63
2022/11/23 04:00:58;;;;;;;5.13;1.47;;;;;;;19.10;60.75;98945.91;5092155;28;20182;-63
2022/11/23 04:03:24;;;;;;;3.67;1.10;;;;;;;19.11;60.65;98943.88;5085461;28;20523;-63
2022/11/23 04:05:49;;;;;;;2.43;1.10;;;;;;;19.09;60.78;98943.47;5071917;28;20198;-63
2022/11/23 04:08:15;;;;;;;3.30;1.53;;;;;;;19.08;60.64;98942.69;5071936;28;20633;-63
2022/11/23 04:10:40;;;;;;;3.50;1.60;;;;;;;19.11;60.69;98933.25;5070806;28;20183;-63
2022/11/23 04:13:06;;;;;;;3.10;1.33;;;;;;;19.08;60.87;98947.56;5071091;28;20167;-63
2022/11/23 04:15:31;;;;;;;5.00;1.70;;;;;;;19.09;60.71;98943.47;5071991;28;20175;-63
2022/11/23 04:17:56;;;;;;;2.20;1.03;;;;;;;19.06;60.77;98938.59;5084924;28;20174;-63
2022/11/23 04:20:22;;;;;;;5.93;1.83;;;;;;;19.05;60.64;98937.78;5074088;28;20171;-63
2022/11/23 04:22:47;;;;;;;3.50;1.83;;;;;;;19.04;60.84;98936.16;5091778;28;20206;-63
2022/11/23 04:25:13;;;;;;;3.90;1.30;;;;;;;19.05;60.85;98942.66;5074021;28;20578;-63
2022/11/23 04:27:38;;;;;;;2.00;1.10;;;;;;;19.07;60.99;98928.78;5073509;28;20162;-63
2022/11/23 04:30:04;;;;;;;3.27;1.50;;;;;;;19.06;60.75;98927.97;5091187;28;20642;-63
2022/11/23 04:32:29;;;;;;;2.90;1.37;;;;;;;19.07;60.85;98929.59;5091794;28;20540;-62
2022/11/23 04:34:55;;;;;;;5.40;1.70;;;;;;;19.06;60.90;98927.16;5091516;28;20174;-63
2022/11/23 04:37:20;;;;;;;3.47;1.30;;;;;;;19.08;60.70;98925.50;5091791;28;20167;-63
2022/11/23 04:39:46;;;;;;;2.20;0.93;;;;;;;19.08;60.67;98925.50;5091905;28;20163;-63
2022/11/23 04:42:11;;;;;;;2.27;1.10;;;;;;;19.08;60.80;98931.22;5091914;28;20197;-63
2022/11/23 04:44:37;;;;;;;3.30;1.43;;;;;;;19.07;60.62;98923.84;5091839;28;20170;-63
2022/11/23 04:47:02;;;;;;;2.90;1.30;;;;;;;19.06;60.73;98932.88;5069525;28;20591;-63
2022/11/23 04:49:27;;;;;;;2.80;1.20;;;;;;;19.09;60.81;98930.00;5070074;28;20690;-63
2022/11/23 04:51:53;;;;;;;4.43;1.23;;;;;;;19.04;60.76;98935.34;5071660;28;20171;-63
2022/11/23 04:54:18;;;;;;;5.20;1.50;;;;;;;19.02;60.96;98932.88;5089610;28;20234;-63
2022/11/23 04:56:44;;;;;;;3.47;1.53;;;;;;;19.07;60.74;98923.84;5073629;28;20179;-63
2022/11/23 04:59:09;;;;;;;2.53;1.17;;;;;;;19.07;60.75;98923.84;5091636;28;20168;-63
2022/11/23 05:01:35;;;;;;;2.70;1.03;;;;;;;19.06;60.69;98925.09;5091584;28;20190;-63
2022/11/23 05:04:00;;;;;;;2.80;1.30;;;;;;;19.06;60.90;98930.81;5085785;28;20202;-63
2022/11/23 05:06:26;;;;;;;2.73;1.00;;;;;;;19.04;60.75;98924.72;5091772;28;20177;-63
2022/11/23 05:08:51;;;;;;;2.03;0.97;;;;;;;19.06;60.85;98921.44;5091665;28;20514;-63
2022/11/23 05:11:17;;;;;;;3.47;1.37;;;;;;;19.05;60.88;98929.19;5091771;28;20999;-63
2022/11/23 05:13:42;;;;;;;3.10;1.10;;;;;;;19.05;60.57;98937.78;5091471;28;20178;-63
2022/11/23 05:16:07;;;;;;;3.37;1.20;;;;;;;19.09;60.58;98937.75;5094002;28;20896;-63
2022/11/23 05:18:33;;;;;;;7.13;1.10;;;;;;;19.05;60.75;98936.94;5088367;28;20499;-63
2022/11/23 05:20:58;;;;;;;2.97;1.20;;;;;;;19.07;60.88;98931.66;5094156;28;20271;-63
2022/11/23 05:23:24;;;;;;;3.20;1.23;;;;;;;19.06;60.65;98922.25;5095219;28;20163;-63
2022/11/23 05:25:49;;;;;;;3.80;1.40;;;;;;;19.07;60.85;98931.66;5095320;28;20167;-63
2022/11/23 05:28:16;;;;;;;2.17;1.13;;;;;;;19.09;60.52;98947.16;5094929;28;20158;-63
2022/11/23 05:30:42;;;;;;;4.33;1.47;;;;;;;19.07;60.70;98938.16;5094981;28;20189;-63
2022/11/23 05:33:07;;;;;;;2.50;1.00;;;;;;;19.06;60.79;98930.81;5094757;28;20448;-62
2022/11/23 05:35:34;;;;;;;2.43;1.20;;;;;;;19.02;60.92;98937.81;5091605;28;20170;-64
2022/11/23 05:37:59;;;;;;;2.53;1.00;;;;;;;19.06;60.70;98939.41;5095052;28;20158;-63
2022/11/23 05:40:25;;;;;;;2.60;1.50;;;;;;;19.04;60.86;98936.16;5091493;28;20762;-63
2022/11/23 05:42:56;;;;;;;3.33;1.47;;;;;;;19.04;60.72;98939.03;5094952;28;20240;-63
2022/11/23 05:45:22;;;;;;;2.00;1.10;;;;;;;19.04;60.61;98936.16;5076416;28;20224;-63
2022/11/23 05:47:51;;;;;;;4.10;1.13;;;;;;;19.04;60.72;98941.06;5095033;28;20432;-63
2022/11/23 05:50:17;;;;;;;5.20;1.60;;;;;;;19.08;60.65;98930.41;5094834;28;20245;-63
2022/11/23 05:52:42;;;;;;;2.07;0.93;;;;;;;19.05;60.79;98937.78;5094777;28;20412;-63
2022/11/23 05:55:08;;;;;;;4.60;1.10;;;;;;;19.09;60.53;98932.84;5090808;28;20218;-63
2022/11/23 05:57:33;;;;;;;2.50;1.10;;;;;;;19.06;60.76;98945.13;5094686;28;20176;-63
2022/11/23 05:59:58;;;;;;;2.97;1.00;;;;;;;19.05;60.73;98934.91;5059635;28;20174;-63
2022/11/23 06:02:24;;;;;;;2.77;1.40;;;;;;;19.02;60.74;98938.59;5094353;28;20198;-63
2022/11/23 06:04:49;;;;;;;3.00;0.93;;;;;;;19.07;60.61;98941.03;5076519;28;20857;-63
2022/11/23 06:07:15;;;;;;;2.33;1.17;;;;;;;19.06;60.61;98939.41;5074021;28;20159;-63
2022/11/23 06:09:40;;;;;;;2.73;1.10;;;;;;;19.04;60.72;98941.06;5074109;28;20160;-63
2022/11/23 06:12:06;;;;;;;5.67;1.10;;;;;;;19.08;60.69;98947.56;5073800;28;20213;-63
2022/11/23 06:14:31;;;;;;;2.50;1.13;;;;;;;19.07;60.59;98943.88;5073738;28;20171;-63
2022/11/23 06:16:57;;;;;;;1.90;1.00;;;;;;;19.08;60.61;98953.28;5073845;28;20159;-63
2022/11/23 06:19:22;;;;;;;2.43;1.23;;;;;;;19.06;60.61;98947.97;5088519;28;20541;-63
2022/11/23 06:21:48;;;;;;;2.17;1.07;;;;;;;19.04;60.74;98947.59;5093797;28;20194;-63
2022/11/23 06:24:13;;;;;;;2.83;1.30;;;;;;;19.04;60.65;98946.78;5093851;28;20171;-63
2022/11/23 06:26:39;;;;;;;2.30;1.03;;;;;;;19.07;60.64;98951.66;5093008;28;20213;-63
2022/11/23 06:29:04;;;;;;;6.90;1.50;;;;;;;19.07;60.54;98948.81;5094095;28;20175;-63
2022/11/23 06:31:29;;;;;;;3.23;1.10;;;;;;;19.07;60.74;98940.22;5093515;28;20175;-63
2022/11/23 06:33:55;;;;;;;2.70;1.30;;;;;;;19.08;60.67;98944.72;5075538;28;20187;-63
2022/11/23 06:36:20;;;;;;;3.50;1.10;;;;;;;19.07;60.49;98949.59;5093558;28;20170;-62
2022/11/23 06:38:46;;;;;;;2.50;1.30;;;;;;;19.08;60.56;98948.41;5093954;28;20498;-63
2022/11/23 06:41:11;;;;;;;3.37;1.10;;;;;;;19.09;60.51;98954.91;5074968;28;20573;-63
2022/11/23 06:43:37;;;;;;;1.90;1.00;;;;;;;19.08;60.47;98945.53;5092525;28;20175;-63
2022/11/23 06:46:04;;;;;;;3.50;1.50;;;;;;;19.09;60.53;98952.88;5094080;28;20186;-63
2022/11/23 06:48:29;;;;;;;2.30;1.00;;;;;;;19.06;60.64;98945.13;5077149;28;20182;-63
2022/11/23 06:50:57;;;;;;;2.57;1.00;;;;;;;19.03;60.89;98945.97;5089201;28;20416;-63
2022/11/23 06:53:23;;;;;;;2.93;1.50;;;;;;;19.05;60.45;98952.09;5091534;28;20503;-63
2022/11/23 06:55:48;;;;;;;2.57;1.27;;;;;;;19.07;60.44;98958.19;5075286;28;20405;-63
2022/11/23 06:58:14;;;;;;;2.87;1.20;;;;;;;19.09;60.26;98954.91;5074563;28;20178;-63
2022/11/23 07:00:39;;;;;;;2.03;0.90;;;;;;;19.08;60.43;98959.00;5091595;28;20499;-63
2022/11/23 07:03:04;;;;;;;2.77;1.10;;;;;;;19.08;60.58;98959.84;5070634;28;20199;-63
2022/11/23 07:05:30;;;;;;;3.60;1.40;;;;;;;19.07;60.66;98955.31;5080713;28;20209;-63
2022/11/23 07:07:56;;;;;;;2.80;1.20;;;;;;;19.08;60.51;98959.84;5082998;28;20179;-63
2022/11/23 07:10:21;;;;;;;3.63;1.13;;;;;;;19.07;60.60;98963.91;5073174;28;20194;-63
2022/11/23 07:12:46;;;;;;;2.70;1.07;;;;;;;19.05;60.60;98966.38;5072124;28;20152;-63
2022/11/23 07:15:12;;;;;;;4.20;1.50;;;;;;;19.07;60.61;98968.84;5080114;28;20588;-63
2022/11/23 07:17:41;;;;;;;2.27;1.00;;;;;;;19.06;60.49;98967.22;5086381;28;20174;-63
2022/11/23 07:20:08;;;;;;;5.67;1.47;;;;;;;19.07;60.49;98969.63;5058105;28;20209;-63
2022/11/23 07:22:34;;;;;;;3.57;1.47;;;;;;;19.08;60.51;98971.28;5056161;28;20816;-63
2022/11/23 07:24:59;;;;;;;2.80;1.30;;;;;;;19.09;60.44;98975.75;5035624;28;20442;-63
2022/11/23 07:27:25;;;;;;;2.20;0.97;;;;;;;19.09;60.47;98980.66;5091511;28;20922;-63
2022/11/23 07:29:50;;;;;;;2.17;0.97;;;;;;;19.06;60.73;98982.31;5073366;28;20182;-63
2022/11/23 07:32:16;;;;;;;3.80;1.47;;;;;;;19.05;60.72;98977.81;5071641;28;20187;-63
2022/11/23 07:34:41;;;;;;;3.60;1.03;;;;;;;19.07;60.30;98978.22;5065783;28;20187;-62
2022/11/23 07:37:06;;;;;;;2.20;1.20;;;;;;;19.10;60.40;98980.25;5081744;28;20175;-63
2022/11/23 07:39:32;;;;;;;4.40;1.63;;;;;;;18.92;59.30;98984.44;5075302;28;20185;-63
2022/11/23 07:41:57;;;;;;;9.30;3.93;;;;;;;18.84;55.91;98975.06;5074101;28;20205;-64
2022/11/23 07:44:23;;;;;;;15.50;5.90;;;;;;;18.96;54.85;98985.25;5068405;28;20217;-62
2022/11/23 07:46:52;;;;;;;12.53;5.50;;;;;;;19.15;52.50;98987.56;5073395;28;20209;-64
2022/11/23 07:49:17;;;;;;;11.90;4.30;;;;;;;19.08;50.03;98979.88;5067712;28;20248;-64
2022/11/23 07:51:43;;;;;;;10.77;4.17;;;;;;;19.23;50.08;98977.75;5042953;28;20433;-64
2022/11/23 07:54:08;;;;;;;12.67;4.10;;;;;;;19.23;50.81;98972.88;5054460;28;20271;-64
2022/11/23 07:56:34;;;;;;;8.80;4.27;;;;;;;19.44;51.54;98972.72;5078670;28;20190;-64
2022/11/23 07:58:59;;;;;;;11.10;4.60;;;;;;;19.49;51.77;98972.28;5074126;28;20197;-64
2022/11/23 08:01:25;;;;;;;13.47;4.87;;;;;;;19.68;51.49;98968.03;5051711;28;20198;-64
2022/11/23 08:03:50;;;;;;;8.80;3.60;;;;;;;19.62;52.62;98967.66;5072905;28;20183;-64
2022/11/23 08:06:16;;;;;;;10.00;4.10;;;;;;;19.68;52.58;98976.63;5070633;28;20187;-64
2022/11/23 08:08:41;;;;;;;16.60;4.07;;;;;;;19.79;53.47;98972.47;5069769;28;20178;-64
2022/11/23 08:11:07;;;;;;;8.80;4.27;;;;;;;19.68;53.72;98971.72;5032165;28;20185;-63
2022/11/23 08:13:33;;;;;;;9.87;4.20;;;;;;;19.63;54.06;98972.19;5071300;28;20273;-64
2022/11/23 08:15:59;;;;;;;9.27;3.97;;;;;;;19.70;54.02;98972.13;5071528;28;21015;-64
2022/11/23 08:18:25;;;;;;;10.53;3.77;;;;;;;19.60;54.10;98969.31;5039469;28;20232;-64
2022/11/23 08:20:50;;;;;;;11.57;5.17;;;;;;;19.56;54.10;98962.84;5070410;28;20846;-64
2022/11/23 08:23:16;;;;;;;7.43;3.90;;;;;;;19.49;54.71;98969.41;5056455;28;20202;-64
2022/11/23 08:25:41;;;;;;;8.43;4.33;;;;;;;19.49;54.41;98969.41;5072831;28;20553;-63
2022/11/23 08:28:07;;;;;;;6.87;3.90;;;;;;;19.38;53.69;98968.69;5070416;28;20789;-63
2022/11/23 08:30:32;;;;;;;12.63;4.40;;;;;;;19.19;52.48;98974.91;5074811;28;20191;-63
2022/11/23 08:32:58;;;;;;;8.20;3.80;;;;;;;19.07;48.87;98975.34;5072086;28;20211;-64
2022/11/23 08:35:24;;;;;;;8.37;3.63;;;;;;;19.09;49.34;98972.91;5070708;28;20198;-63
2022/11/23 08:37:49;;;;;;;9.40;4.47;;;;;;;19.14;48.94;98978.19;5054148;28;20201;-62
2022/11/23 08:40:14;;;;;;;9.43;4.17;;;;;;;19.27;48.82;98972.84;5068035;28;20197;-62
2022/11/23 08:42:40;;;;;;;8.37;4.00;;;;;;;19.26;49.10;98968.34;5068558;28;20240;-64
2022/11/23 08:45:06;;;;;;;8.63;3.63;;;;;;;19.32;49.77;98969.53;5070680;28;20190;-64
2022/11/23 08:47:32;;;;;;;10.93;4.13;;;;;;;19.34;49.60;98975.63;5074717;28;20224;-64
2022/11/23 08:49:57;;;;;;;7.60;3.50;;;;;;;19.34;50.29;98984.22;5078064;28;20895;-64
2022/11/23 08:52:22;;;;;;;10.80;4.63;;;;;;;19.32;50.86;98983.84;5078494;28;21123;-64
2022/11/23 08:54:48;;;;;;;8.80;3.57;;;;;;;19.34;51.06;98982.19;5074547;28;20311;-64
2022/11/23 08:57:13;;;;;;;6.40;3.67;;;;;;;19.37;51.31;98969.88;5074164;28;20183;-64
2022/11/23 08:59:39;;;;;;;10.93;3.77;;;;;;;19.40;51.61;98973.97;5074947;28;20190;-63
2022/11/23 09:02:04;;;;;;;6.97;3.60;;;;;;;19.38;52.12;98974.41;5079029;28;20665;-64
2022/11/23 09:04:30;;;;;;;8.83;3.60;;;;;;;19.40;52.49;98965.38;5076495;28;20218;-64
2022/11/23 09:06:55;;;;;;;12.53;3.30;;;;;;;19.49;52.83;98963.69;5078017;28;20880;-65
2022/11/23 09:09:21;;;;;;;7.37;3.60;;;;;;;19.60;52.60;98961.56;5077619;28;20669;-64
2022/11/23 09:11:47;;;;;;;6.47;3.07;;;;;;;19.46;53.24;98964.53;5075833;28;20210;-63
2022/11/23 09:14:12;;;;;;;8.50;3.90;;;;;;;19.42;53.67;98968.66;5081632;28;20227;-65
2022/11/23 09:16:38;;;;;;;6.53;3.10;;;;;;;19.38;53.78;98965.81;5072091;28;20229;-63
2022/11/23 09:19:06;;;;;;;10.13;3.47;;;;;;;19.43;53.94;98965.38;5078034;28;20275;-63
2022/11/23 09:21:34;;;;;;;9.20;4.10;;;;;;;19.40;54.36;98971.09;5077839;28;20214;-64
2022/11/23 09:24:00;;;;;;;6.77;3.27;;;;;;;19.38;54.51;98970.72;5077346;28;20447;-64
2022/11/23 09:26:25;;;;;;;8.10;3.10;;;;;;;19.44;54.37;98969.84;5057891;28;20437;-63
2022/11/23 09:28:51;;;;;;;7.13;3.20;;;;;;;19.60;55.13;98970.16;5076398;28;20274;-63
2022/11/23 09:31:16;;;;;;;6.20;3.40;;;;;;;19.61;54.82;98977.50;5074983;28;20186;-63
2022/11/23 09:33:42;;;;;;;11.17;3.83;;;;;;;19.68;53.32;98977.47;5074927;28;20209;-63
2022/11/23 09:36:08;;;;;;;8.97;3.30;;;;;;;19.68;51.44;98977.47;5074602;28;20550;-64
2022/11/23 09:38:33;;;;;;;6.80;2.87;;;;;;;19.70;51.77;98977.00;5075718;28;20465;-64
2022/11/23 09:41:24;;;;;;;8.30;2.90;;;;;;;19.55;53.01;98979.19;5075620;28;20433;-64
2022/11/23 09:44:03;;;;;;;13.93;3.47;;;;;;;19.60;54.12;98984.47;5077371;28;20674;-64
2022/11/23 09:46:46;;;;;;;7.60;2.57;;;;;;;19.56;53.12;98980.00;5062837;28;20423;-63
2022/11/23 09:49:15;;;;;;;8.03;2.60;;;;;;;19.46;52.59;98973.09;5062120;28;20433;-63
2022/11/23 09:51:41;;;;;;;10.67;2.90;;;;;;;19.33;50.94;98974.84;5076542;28;20478;-63
2022/11/23 09:54:13;;;;;;;9.20;2.87;;;;;;;19.24;51.27;98979.38;5060232;28;20859;-63
2022/11/23 09:56:38;;;;;;;9.90;2.80;;;;;;;19.25;50.85;98976.09;5076470;28;20191;-63
2022/11/23 09:59:30;;;;;;;8.80;2.90;;;;;;;19.19;51.05;98972.03;5075836;28;20461;-64
2022/11/23 10:01:56;;;;;;;6.10;2.73;;;;;;;19.24;51.28;98974.50;5019617;28;20333;-64
2022/11/23 10:04:21;;;;;;;7.93;2.87;;;;;;;19.22;51.26;98971.22;5083217;28;20437;-63
2022/11/23 10:07:13;;;;;;;10.13;2.80;;;;;;;19.27;50.96;98975.69;5044491;28;21460;-64
2022/11/23 10:10:08;;;;;;;9.27;2.83;;;;;;;19.27;50.13;98967.91;5064860;28;20195;-62
2022/11/23 10:12:45;;;;;;;7.70;2.43;;;;;;;19.31;51.00;98976.50;5059007;28;20456;-62
2022/11/23 10:15:17;;;;;;;6.70;2.10;;;;;;;19.33;50.75;98969.13;5077143;28;20929;-62
2022/11/23 10:18:06;;;;;;;10.03;2.50;;;;;;;19.35;50.75;98963.78;5076505;28;20428;-62
2022/11/23 10:20:50;;;;;;;7.57;2.67;;;;;;;19.38;52.12;98968.69;5073886;28;20515;-62
2022/11/23 10:23:34;;;;;;;8.10;2.70;;;;;;;19.43;50.74;98965.38;5077454;28;20472;-62
2022/11/23 10:26:00;;;;;;;8.33;2.07;;;;;;;19.45;51.66;98959.22;5077734;28;20449;-62
2022/11/23 10:28:28;;;;;;;5.57;2.30;;;;;;;19.48;51.50;98959.22;5077356;28;21397;-62
2022/11/23 10:31:01;;;;;;;6.70;2.60;;;;;;;19.49;51.11;98957.13;5043282;28;20186;-62
2022/11/23 10:33:31;;;;;;;9.43;3.00;;;;;;;19.41;53.13;98947.00;5061208;28;20938;-62
2022/11/23 10:35:57;;;;;;;14.20;2.50;;;;;;;19.41;52.92;98947.78;5079178;28;20817;-61
2022/11/23 10:38:25;;;;;;;7.80;3.10;;;;;;;19.43;53.95;98942.47;5076342;28;20428;-61
2022/11/23 10:41:12;;;;;;;15.40;2.30;;;;;;;19.44;53.58;98943.28;5073475;28;20187;-61
2022/11/23 10:44:04;;;;;;;13.03;2.37;;;;;;;19.43;53.57;98936.75;5073404;28;20776;-61
2022/11/23 10:46:33;;;;;;;9.10;2.43;;;;;;;19.43;53.85;98936.75;5059443;28;20495;-61
2022/11/23 10:49:20;;;;;;;9.63;2.77;;;;;;;19.48;53.72;98930.59;5058921;28;20417;-61
2022/11/23 10:52:05;;;;;;;10.33;3.10;;;;;;;19.47;53.86;98923.22;5076937;28;20428;-61
2022/11/23 10:54:33;;;;;;;9.87;2.80;;;;;;;19.47;54.08;98925.28;5075648;28;20468;-61
2022/11/23 10:57:00;;;;;;;12.07;2.97;;;;;;;19.51;54.63;98912.53;5074432;28;20425;-61
2022/11/23 10:59:30;;;;;;;9.10;2.47;;;;;;;19.50;54.70;98913.78;5072024;28;20423;-61
2022/11/23 11:02:00;;;;;;;8.70;2.53;;;;;;;19.52;54.36;98913.38;5074414;28;20476;-62
2022/11/23 11:04:26;;;;;;;7.80;2.03;;;;;;;19.50;54.48;98913.78;5075940;28;20445;-61
2022/11/23 11:06:52;;;;;;;9.20;2.10;;;;;;;19.46;54.66;98907.28;5076616;28;20740;-62
2022/11/23 11:09:19;;;;;;;5.93;2.30;;;;;;;19.47;54.72;98905.25;5065864;28;20187;-61
2022/11/23 11:11:45;;;;;;;7.13;2.40;;;;;;;19.46;54.93;98897.91;5074069;28;20615;-61
2022/11/23 11:14:18;;;;;;;8.97;2.23;;;;;;;19.46;55.04;98907.28;5059282;28;20416;-61
2022/11/23 11:16:47;;;;;;;12.20;2.50;;;;;;;19.47;55.00;98897.44;5075301;28;20435;-61
2022/11/23 11:19:39;;;;;;;7.13;2.50;;;;;;;19.50;54.83;98895.78;5076973;28;20419;-61
2022/11/23 11:22:35;;;;;;;8.90;2.90;;;;;;;19.46;55.16;98887.25;5070940;28;20479;-61
2022/11/23 11:25:03;;;;;;;10.27;2.67;;;;;;;19.45;55.60;98893.38;5057911;28;20407;-61
2022/11/23 11:27:29;;;;;;;6.47;2.50;;;;;;;19.45;55.18;98888.47;5074226;28;20459;-62
2022/11/23 11:30:05;;;;;;;7.07;2.00;;;;;;;19.44;55.54;98883.16;5057095;28;20496;-61
2022/11/23 11:33:13;;;;;;;5.97;2.13;;;;;;;19.37;55.87;98878.31;5050554;28;20457;-61
2022/11/23 11:35:41;;;;;;;7.07;2.00;;;;;;;19.37;55.83;98884.03;5043548;28;20444;-62